createdAt,value
2023-03-21T00:01:30.623Z,9.10
2023-03-21T00:03:58.176Z,13.63
2023-03-21T00:06:25.744Z,10.83
2023-03-21T00:08:53.485Z,9.87
2023-03-21T00:11:21.613Z,9.67
2023-03-21T00:13:50.348Z,10.70
2023-03-21T00:16:29.234Z,10.67
2023-03-21T00:18:58.687Z,11.60
2023-03-21T00:22:03.590Z,10.13
2023-03-21T00:24:19.709Z,10.03
2023-03-21T00:26:47.117Z,11.63
2023-03-21T00:29:16.012Z,12.57
2023-03-21T00:31:43.426Z,13.83
2023-03-21T00:34:14.079Z,13.33
2023-03-21T00:36:41.668Z,11.63
2023-03-21T00:39:09.521Z,11.93
2023-03-21T00:41:42.854Z,12.50
2023-03-21T00:44:13.583Z,13.90
2023-03-21T00:46:51.676Z,12.60
2023-03-21T00:49:24.736Z,12.27
2023-03-21T00:51:53.241Z,12.23
2023-03-21T00:54:20.758Z,12.10
2023-03-21T00:56:48.159Z,12.90
2023-03-21T00:59:16.598Z,13.40
2023-03-21T01:01:46.782Z,16.43
2023-03-21T01:04:16.525Z,13.80
2023-03-21T01:06:45.059Z,13.80
2023-03-21T01:09:15.112Z,15.27
2023-03-21T01:11:42.891Z,15.00
2023-03-21T01:14:21.875Z,15.50
2023-03-21T01:16:51.230Z,17.13
2023-03-21T01:19:50.648Z,16.47
2023-03-21T01:22:07.479Z,18.17
2023-03-21T01:24:37.715Z,18.63
2023-03-21T01:27:05.948Z,17.93
2023-03-21T01:29:33.352Z,18.47
2023-03-21T01:32:02.074Z,19.00
2023-03-21T01:34:29.931Z,18.53
2023-03-21T01:36:57.404Z,19.30
2023-03-21T01:39:24.837Z,17.23
2023-03-21T01:41:52.254Z,19.47
2023-03-21T01:44:20.297Z,21.33
2023-03-21T01:49:41.589Z,22.20
2023-03-21T01:52:20.950Z,21.00
2023-03-21T01:54:56.943Z,21.63
2023-03-21T01:57:40.389Z,25.00
2023-03-21T02:00:13.033Z,25.33
2023-03-21T02:02:52.137Z,25.07
2023-03-21T02:05:28.285Z,25.67
2023-03-21T02:07:55.815Z,27.40
2023-03-21T02:10:23.331Z,27.03
2023-03-21T02:12:51.176Z,26.93
2023-03-21T02:15:18.749Z,27.30
2023-03-21T02:17:53.328Z,27.43
2023-03-21T02:20:36.054Z,27.10
2023-03-21T02:23:24.522Z,28.07
2023-03-21T02:26:19.114Z,28.07
2023-03-21T02:28:48.938Z,28.23
2023-03-21T02:31:28.333Z,29.90
2023-03-21T02:34:36.206Z,29.47
2023-03-21T02:37:09.762Z,29.30
2023-03-21T02:39:48.807Z,30.47
2023-03-21T02:42:21.813Z,29.03
2023-03-21T02:44:57.036Z,29.90
2023-03-21T02:47:28.983Z,30.60
2023-03-21T02:49:59.816Z,31.37
2023-03-21T02:52:39.144Z,31.47
2023-03-21T02:55:13.726Z,30.50
2023-03-21T02:57:44.004Z,29.60
2023-03-21T03:00:17.852Z,30.70
2023-03-21T03:02:47.520Z,30.53
2023-03-21T03:05:21.605Z,30.30
2023-03-21T03:08:00.989Z,31.27
2023-03-21T03:10:40.305Z,29.70
2023-03-21T03:13:16.971Z,30.43
2023-03-21T03:15:57.769Z,30.60
2023-03-21T03:18:33.543Z,28.37
2023-03-21T03:21:09.498Z,31.47
2023-03-21T03:23:45.945Z,32.63
2023-03-21T03:26:17.758Z,31.27
2023-03-21T03:28:50.190Z,30.60
2023-03-21T03:31:25.919Z,30.70
2023-03-21T03:33:57.137Z,32.17
2023-03-21T03:36:32.602Z,30.80
2023-03-21T03:39:05.351Z,30.83
2023-03-21T03:42:03.050Z,32.40
2023-03-21T03:44:24.210Z,34.00
2023-03-21T03:46:57.211Z,32.37
2023-03-21T03:49:27.953Z,32.53
2023-03-21T03:52:00.317Z,32.10
2023-03-21T03:54:33.197Z,32.20
2023-03-21T03:57:01.263Z,32.63
2023-03-21T03:59:28.710Z,33.30
2023-03-21T04:01:56.172Z,31.80
2023-03-21T04:04:28.621Z,32.67
2023-03-21T04:06:58.011Z,31.87
2023-03-21T04:09:40.942Z,30.50
2023-03-21T04:12:12.798Z,31.20
2023-03-21T04:14:45.581Z,30.57
2023-03-21T04:17:14.662Z,31.63
2023-03-21T04:19:42.468Z,31.73
2023-03-21T04:22:09.941Z,30.30
2023-03-21T04:24:37.501Z,31.53
2023-03-21T04:27:05.789Z,31.50
2023-03-21T04:29:34.564Z,30.50
2023-03-21T04:32:02.346Z,30.77
2023-03-21T04:34:29.930Z,32.33
2023-03-21T04:36:57.874Z,31.00
2023-03-21T04:39:25.474Z,30.90
2023-03-21T04:41:52.971Z,30.80
2023-03-21T04:44:20.891Z,31.87
2023-03-21T04:46:50.300Z,31.90
2023-03-21T04:49:18.466Z,30.90
2023-03-21T04:51:46.035Z,30.03
2023-03-21T04:56:41.102Z,31.97
2023-03-21T04:59:12.687Z,31.57
2023-03-21T05:01:41.068Z,30.17
2023-03-21T05:04:10.799Z,29.87
2023-03-21T05:06:38.276Z,31.37
2023-03-21T05:09:07.085Z,31.00
2023-03-21T05:11:37.623Z,30.70
2023-03-21T05:14:05.712Z,33.37
2023-03-21T05:16:34.750Z,33.43
2023-03-21T05:19:04.966Z,31.10
2023-03-21T05:21:41.861Z,34.20
2023-03-21T05:24:12.143Z,33.30
2023-03-21T05:26:40.111Z,37.40
2023-03-21T05:29:08.241Z,33.40
2023-03-21T05:31:36.240Z,33.93
2023-03-21T05:34:04.120Z,33.90
2023-03-21T05:36:33.985Z,33.90
2023-03-21T05:39:02.847Z,35.00
2023-03-21T05:41:30.510Z,38.30
2023-03-21T05:43:57.951Z,34.40
2023-03-21T05:46:25.381Z,35.67
2023-03-21T05:48:53.002Z,34.93
2023-03-21T05:51:20.542Z,36.83
2023-03-21T05:53:48.487Z,33.17
2023-03-21T05:56:17.330Z,35.70
2023-03-21T05:58:44.804Z,34.77
2023-03-21T06:01:12.529Z,34.80
2023-03-21T06:03:39.965Z,34.57
2023-03-21T06:06:08.143Z,36.50
2023-03-21T06:08:35.737Z,36.97
2023-03-21T06:11:03.280Z,37.13
2023-03-21T06:13:32.882Z,37.60
2023-03-21T06:16:00.384Z,33.67
2023-03-21T06:18:28.072Z,32.77
2023-03-21T06:20:56.629Z,35.20
2023-03-21T06:23:24.061Z,34.57
2023-03-21T06:25:51.576Z,36.30
2023-03-21T06:28:19.069Z,30.20
2023-03-21T06:30:47.777Z,33.47
2023-03-21T06:33:15.358Z,35.47
2023-03-21T06:35:42.774Z,33.03
2023-03-21T06:38:10.334Z,31.63
2023-03-21T06:40:38.931Z,29.20
2023-03-21T06:43:06.706Z,32.73
2023-03-21T06:45:34.114Z,32.80
2023-03-21T06:48:02.922Z,35.03
2023-03-21T06:50:30.417Z,32.97
2023-03-21T06:52:59.334Z,31.17
2023-03-21T06:55:28.787Z,35.90
2023-03-21T06:57:57.334Z,36.50
2023-03-21T07:00:25.304Z,35.00
2023-03-21T07:02:53.815Z,36.57
2023-03-21T07:05:22.664Z,32.93
2023-03-21T07:07:50.109Z,35.37
2023-03-21T07:10:17.785Z,37.43
2023-03-21T07:12:45.316Z,36.87
2023-03-21T07:15:12.937Z,37.03
2023-03-21T07:17:40.361Z,38.33
2023-03-21T07:20:08.674Z,37.80
2023-03-21T07:22:37.451Z,38.10
2023-03-21T07:25:06.290Z,38.33
2023-03-21T07:27:33.769Z,36.50
2023-03-21T07:30:01.229Z,37.97
2023-03-21T07:32:29.986Z,38.67
2023-03-21T07:34:57.551Z,39.13
2023-03-21T07:37:24.960Z,39.30
2023-03-21T07:39:53.781Z,39.93
2023-03-21T07:42:21.312Z,39.03
2023-03-21T07:44:48.748Z,40.20
2023-03-21T07:47:16.159Z,38.87
2023-03-21T07:49:43.559Z,38.13
2023-03-21T07:52:11.026Z,39.40
2023-03-21T07:54:38.463Z,39.40
2023-03-21T07:57:07.335Z,36.73
2023-03-21T07:59:34.758Z,37.53
2023-03-21T08:02:02.214Z,38.77
2023-03-21T08:04:30.138Z,38.00
2023-03-21T08:06:58.064Z,39.43
2023-03-21T08:09:25.462Z,36.17
2023-03-21T08:11:52.857Z,35.90
2023-03-21T08:14:21.592Z,35.70
2023-03-21T08:16:49.019Z,39.33
2023-03-21T08:19:18.671Z,39.67
2023-03-21T08:21:46.082Z,36.10
2023-03-21T08:24:13.461Z,38.97
2023-03-21T08:26:41.060Z,36.40
2023-03-21T08:29:08.896Z,36.80
2023-03-21T08:31:37.655Z,38.00
2023-03-21T08:34:05.176Z,38.07
2023-03-21T08:36:32.730Z,35.47
2023-03-21T08:39:05.633Z,34.97
2023-03-21T08:41:33.566Z,39.60
2023-03-21T08:44:00.972Z,38.13
2023-03-21T08:46:28.683Z,42.80
2023-03-21T08:48:57.551Z,36.07
2023-03-21T08:51:24.954Z,37.07
2023-03-21T08:53:52.558Z,38.57
2023-03-21T08:56:19.999Z,36.40
2023-03-21T08:58:47.408Z,34.70
2023-03-21T09:01:15.884Z,32.43
2023-03-21T09:03:43.832Z,33.43
2023-03-21T09:06:14.282Z,32.73
2023-03-21T09:08:43.331Z,31.23
2023-03-21T09:11:11.641Z,32.13
2023-03-21T09:13:39.138Z,30.00
2023-03-21T09:16:07.367Z,30.13
2023-03-21T09:18:47.094Z,30.83
2023-03-21T09:21:18.163Z,33.57
2023-03-21T09:23:46.142Z,33.67
2023-03-21T09:26:13.968Z,34.20
2023-03-21T09:28:41.662Z,60.13
2023-03-21T09:31:11.295Z,34.43
2023-03-21T09:33:40.210Z,32.43
2023-03-21T09:36:11.751Z,31.03
2023-03-21T09:38:40.978Z,32.80
2023-03-21T09:41:18.573Z,31.73
2023-03-21T09:43:59.949Z,33.10
2023-03-21T09:46:35.761Z,33.80
2023-03-21T09:49:07.937Z,30.87
2023-03-21T09:51:38.215Z,29.53
2023-03-21T09:54:14.270Z,30.17
2023-03-21T09:56:43.930Z,30.20
2023-03-21T09:59:20.884Z,28.03
2023-03-21T10:01:49.917Z,29.33
2023-03-21T10:04:18.853Z,32.27
2023-03-21T10:06:53.714Z,29.90
2023-03-21T10:09:24.445Z,30.63
2023-03-21T10:11:57.258Z,33.90
2023-03-21T10:14:31.169Z,32.07
2023-03-21T10:17:01.760Z,30.00
2023-03-21T10:19:29.792Z,30.60
2023-03-21T10:22:03.083Z,31.60
2023-03-21T10:24:34.684Z,31.23
2023-03-21T10:27:04.769Z,28.33
2023-03-21T10:29:37.166Z,31.07
2023-03-21T10:32:04.975Z,28.60
2023-03-21T10:34:37.456Z,29.27
2023-03-21T10:37:06.830Z,29.93
2023-03-21T10:39:40.154Z,29.60
2023-03-21T10:42:15.774Z,27.00
2023-03-21T10:44:48.829Z,30.37
2023-03-21T10:47:21.580Z,27.33
2023-03-21T10:52:39.347Z,29.87
2023-03-21T10:55:19.512Z,28.37
2023-03-21T10:57:47.964Z,27.33
2023-03-21T11:00:21.726Z,28.10
2023-03-21T11:02:51.385Z,26.40
2023-03-21T11:05:23.073Z,26.00
2023-03-21T11:07:58.761Z,29.77
2023-03-21T11:10:33.659Z,27.40
2023-03-21T11:13:06.872Z,26.53
2023-03-21T11:15:42.057Z,25.50
2023-03-21T11:18:18.626Z,25.10
2023-03-21T11:20:51.734Z,26.03
2023-03-21T11:23:20.892Z,24.70
2023-03-21T11:25:51.636Z,26.00
2023-03-21T11:28:22.082Z,22.37
2023-03-21T11:30:55.525Z,22.37
2023-03-21T11:33:27.039Z,23.20
2023-03-21T11:36:02.901Z,23.63
2023-03-21T11:38:34.006Z,23.13
2023-03-21T11:41:04.257Z,23.23
2023-03-21T11:43:35.957Z,21.40
2023-03-21T11:46:08.918Z,23.70
2023-03-21T11:48:40.804Z,20.73
2023-03-21T11:51:18.179Z,23.00
2023-03-21T11:53:49.987Z,21.07
2023-03-21T11:56:26.497Z,19.20
2023-03-21T11:59:17.300Z,19.57
2023-03-21T12:01:57.179Z,19.50
2023-03-21T12:04:40.525Z,19.57
2023-03-21T12:07:19.887Z,19.30
2023-03-21T12:09:54.490Z,18.50
2023-03-21T12:12:39.364Z,18.23
2023-03-21T12:15:18.278Z,18.33
2023-03-21T12:17:55.607Z,18.93
2023-03-21T12:20:40.284Z,19.80
2023-03-21T12:23:19.314Z,17.70
2023-03-21T12:25:54.138Z,19.57
2023-03-21T12:28:34.771Z,19.53
2023-03-21T12:31:12.131Z,18.50
2023-03-21T12:33:54.244Z,17.77
2023-03-21T12:36:38.636Z,16.83
2023-03-21T12:39:21.705Z,16.70
2023-03-21T12:42:04.322Z,17.27
2023-03-21T12:44:39.005Z,17.43
2023-03-21T12:47:11.350Z,18.70
2023-03-21T12:49:43.915Z,18.13
2023-03-21T12:52:15.575Z,18.00
2023-03-21T12:54:49.507Z,18.40
2023-03-21T12:57:21.224Z,16.43
2023-03-21T12:59:56.152Z,18.03
2023-03-21T13:02:30.543Z,17.67
2023-03-21T13:05:05.982Z,16.07
2023-03-21T13:07:38.352Z,15.80
2023-03-21T13:10:14.725Z,17.07
2023-03-21T13:12:49.191Z,15.40
2023-03-21T13:15:54.774Z,17.23
2023-03-21T13:18:32.289Z,16.70
2023-03-21T13:21:03.702Z,15.77
2023-03-21T13:23:36.703Z,14.73
2023-03-21T13:26:08.774Z,15.07
2023-03-21T13:28:37.932Z,13.97
2023-03-21T13:31:23.325Z,14.20
2023-03-21T13:33:52.607Z,14.63
2023-03-21T13:36:28.819Z,13.50
2023-03-21T13:39:01.891Z,13.60
2023-03-21T13:41:32.999Z,13.90
2023-03-21T13:44:10.815Z,13.00
2023-03-21T13:46:53.322Z,12.63
2023-03-21T13:49:29.348Z,14.23
2023-03-21T13:51:58.469Z,13.77
2023-03-21T13:54:44.460Z,13.93
2023-03-21T13:57:23.370Z,14.43
2023-03-21T13:59:50.870Z,14.77
2023-03-21T14:02:33.635Z,13.63
2023-03-21T14:05:06.055Z,14.37
2023-03-21T14:07:36.662Z,13.50
2023-03-21T14:10:09.469Z,12.07
2023-03-21T14:12:41.167Z,13.43
2023-03-21T14:15:17.178Z,12.17
2023-03-21T14:17:53.736Z,12.10
2023-03-21T14:20:24.178Z,13.87
2023-03-21T14:22:51.841Z,12.80
2023-03-21T14:25:21.522Z,12.20
2023-03-21T14:27:52.582Z,13.77
2023-03-21T14:30:23.990Z,12.93
2023-03-21T14:32:55.826Z,12.33
2023-03-21T14:35:23.706Z,11.77
2023-03-21T14:37:52.642Z,11.43
2023-03-21T14:40:25.286Z,11.50
2023-03-21T14:42:53.704Z,13.13
2023-03-21T14:45:23.155Z,12.80
2023-03-21T14:48:00.013Z,12.83
2023-03-21T14:50:35.818Z,11.57
2023-03-21T14:53:03.608Z,11.23
2023-03-21T14:55:31.948Z,10.87
2023-03-21T14:57:59.596Z,11.97
2023-03-21T15:00:30.333Z,11.67
2023-03-21T15:03:01.286Z,12.57
2023-03-21T15:05:33.388Z,11.63
2023-03-21T15:08:03.593Z,12.17
2023-03-21T15:10:32.575Z,12.73
2023-03-21T15:13:02.545Z,14.57
2023-03-21T15:15:32.706Z,12.60
2023-03-21T15:18:07.231Z,12.07
2023-03-21T15:20:38.523Z,14.33
2023-03-21T15:23:10.678Z,11.93
2023-03-21T15:25:39.490Z,12.10
2023-03-21T15:28:07.444Z,11.93
2023-03-21T15:30:36.059Z,11.87
2023-03-21T15:33:10.576Z,11.73
2023-03-21T15:35:40.953Z,14.50
2023-03-21T15:38:21.771Z,12.70
2023-03-21T15:40:49.290Z,13.87
2023-03-21T15:43:18.837Z,15.80
2023-03-21T15:45:50.873Z,13.27
2023-03-21T15:48:23.175Z,12.73
2023-03-21T15:50:57.425Z,15.93
2023-03-21T15:53:25.933Z,17.67
2023-03-21T15:55:57.509Z,13.00
2023-03-21T15:58:27.747Z,11.10
2023-03-21T16:00:57.570Z,11.57
2023-03-21T16:03:29.176Z,30.73
2023-03-21T16:06:05.044Z,14.67
2023-03-21T16:08:35.815Z,13.23
2023-03-21T16:11:19.150Z,11.83
2023-03-21T16:13:46.901Z,16.33
2023-03-21T16:16:17.851Z,12.50
2023-03-21T16:18:46.867Z,13.63
2023-03-21T16:21:16.317Z,14.43
2023-03-21T16:23:44.001Z,12.73
2023-03-21T16:26:12.982Z,12.33
2023-03-21T16:28:40.554Z,13.00
2023-03-21T16:31:12.729Z,18.33
2023-03-21T16:33:40.318Z,12.73
2023-03-21T16:36:13.866Z,14.97
2023-03-21T16:38:41.349Z,15.80
2023-03-21T16:41:11.257Z,13.90
2023-03-21T16:43:42.784Z,12.87
2023-03-21T16:46:14.984Z,13.87
2023-03-21T16:48:43.017Z,13.03
2023-03-21T16:51:21.646Z,15.60
2023-03-21T16:53:51.409Z,13.27
2023-03-21T16:56:21.520Z,14.53
2023-03-21T16:58:49.312Z,15.63
2023-03-21T17:01:19.672Z,14.37
2023-03-21T17:03:48.291Z,20.90
2023-03-21T17:06:18.669Z,20.10
2023-03-21T17:08:46.860Z,25.37
2023-03-21T17:11:17.501Z,19.27
2023-03-21T17:13:45.436Z,17.30
2023-03-21T17:16:14.028Z,16.37
2023-03-21T17:18:41.554Z,21.90
2023-03-21T17:21:14.511Z,17.83
2023-03-21T17:23:43.975Z,19.00
2023-03-21T17:26:14.030Z,21.00
2023-03-21T17:28:42.059Z,27.23
2023-03-21T17:31:14.019Z,21.03
2023-03-21T17:33:41.581Z,21.40
2023-03-21T17:36:15.037Z,20.40
2023-03-21T17:38:45.804Z,22.63
2023-03-21T17:41:14.616Z,20.70
2023-03-21T17:43:42.119Z,21.73
2023-03-21T17:46:14.034Z,23.60
2023-03-21T17:48:41.611Z,21.57
2023-03-21T17:51:12.758Z,23.20
2023-03-21T17:53:40.302Z,46.70
2023-03-21T17:56:13.543Z,44.83
2023-03-21T17:58:40.989Z,53.90
2023-03-21T18:01:08.577Z,38.60
2023-03-21T18:03:36.031Z,33.77
2023-03-21T18:06:03.914Z,25.70
2023-03-21T18:08:31.372Z,36.17
2023-03-21T18:10:59.016Z,27.93
2023-03-21T18:13:27.796Z,25.10
2023-03-21T18:15:56.369Z,25.20
2023-03-21T18:18:23.958Z,23.07
2023-03-21T18:20:53.664Z,25.50
2023-03-21T18:23:32.235Z,23.53
2023-03-21T18:26:00.332Z,24.77
2023-03-21T18:28:29.082Z,23.23
2023-03-21T18:31:17.983Z,23.23
2023-03-21T18:33:45.244Z,24.30
2023-03-21T18:36:15.330Z,23.17
2023-03-21T18:38:43.124Z,23.37
2023-03-21T18:41:11.441Z,24.93
2023-03-21T18:44:05.274Z,25.40
2023-03-21T18:46:27.852Z,24.33
2023-03-21T18:48:55.628Z,23.00
2023-03-21T18:51:23.080Z,22.30
2023-03-21T18:53:50.563Z,24.07
2023-03-21T18:57:05.888Z,21.50
2023-03-21T18:59:07.410Z,23.23
2023-03-21T19:01:35.811Z,23.37
2023-03-21T19:04:20.734Z,23.10
2023-03-21T19:06:51.066Z,23.63
2023-03-21T19:09:18.726Z,24.13
2023-03-21T19:11:46.673Z,24.83
2023-03-21T19:14:17.481Z,23.77
2023-03-21T19:17:26.666Z,22.60
2023-03-21T19:19:33.756Z,24.03
2023-03-21T19:22:01.644Z,23.70
2023-03-21T19:24:29.362Z,24.50
2023-03-21T19:26:56.929Z,25.50
2023-03-21T19:29:26.151Z,24.53
2023-03-21T19:31:53.844Z,26.10
2023-03-21T19:34:21.680Z,26.20
2023-03-21T19:36:51.912Z,25.33
2023-03-21T19:39:22.230Z,29.63
2023-03-21T19:41:50.176Z,25.97
2023-03-21T19:44:19.081Z,25.03
2023-03-21T19:46:48.875Z,25.40
2023-03-21T19:49:20.138Z,22.47
2023-03-21T19:51:48.166Z,26.60
2023-03-21T19:54:17.857Z,27.43
2023-03-21T19:56:47.649Z,28.53
2023-03-21T19:59:15.998Z,26.17
2023-03-21T20:01:43.586Z,28.13
2023-03-21T20:04:12.747Z,23.67
2023-03-21T20:06:40.485Z,26.27
2023-03-21T20:11:57.878Z,27.80
2023-03-21T20:14:25.826Z,26.80
2023-03-21T20:16:55.243Z,27.90
2023-03-21T20:19:25.460Z,28.80
2023-03-21T20:21:58.772Z,29.87
2023-03-21T20:24:28.308Z,29.10
2023-03-21T20:26:57.373Z,28.10
2023-03-21T20:32:16.139Z,30.13
2023-03-21T20:34:46.237Z,30.00
2023-03-21T20:37:15.671Z,32.73
2023-03-21T20:39:43.611Z,27.77
2023-03-21T20:42:11.652Z,28.77
2023-03-21T20:44:58.468Z,30.83
2023-03-21T20:47:27.879Z,30.63
2023-03-21T20:50:01.847Z,30.87
2023-03-21T20:55:28.280Z,30.13
2023-03-21T20:57:55.840Z,32.37
2023-03-21T21:00:26.559Z,33.83
2023-03-21T21:02:54.382Z,29.80
2023-03-21T21:05:28.310Z,34.63
2023-03-21T21:07:57.117Z,33.63
2023-03-21T21:10:25.932Z,31.90
2023-03-21T21:12:53.768Z,29.13
2023-03-21T21:15:22.043Z,15.60
2023-03-21T21:18:08.531Z,21.00
2023-03-21T21:20:40.658Z,26.23
2023-03-21T21:23:13.740Z,11.30
2023-03-21T21:25:44.593Z,26.00
2023-03-21T21:28:14.482Z,28.43
2023-03-21T21:30:42.821Z,31.33
2023-03-21T21:33:10.537Z,26.90
2023-03-21T21:35:39.507Z,21.23
2023-03-21T21:38:07.124Z,26.10
2023-03-21T21:40:34.561Z,31.73
2023-03-21T21:43:03.651Z,32.70
2023-03-21T21:45:31.689Z,30.33
2023-03-21T21:47:59.134Z,37.17
2023-03-21T21:50:26.573Z,37.10
2023-03-21T21:52:55.352Z,36.03
2023-03-21T21:55:23.357Z,39.30
2023-03-21T21:57:51.243Z,37.97
2023-03-21T22:00:20.563Z,35.27
2023-03-21T22:02:48.265Z,40.80
2023-03-21T22:05:16.260Z,39.30
2023-03-21T22:07:44.192Z,40.47
2023-03-21T22:10:13.379Z,36.50
2023-03-21T22:12:41.169Z,34.17
2023-03-21T22:15:10.707Z,36.70
2023-03-21T22:17:39.070Z,36.07
2023-03-21T22:20:08.777Z,34.63
2023-03-21T22:22:37.312Z,32.63
2023-03-21T22:25:06.744Z,35.00
2023-03-21T22:27:35.711Z,35.07
2023-03-21T22:30:04.872Z,38.70
2023-03-21T22:32:32.387Z,38.00
2023-03-21T22:35:02.256Z,36.43
2023-03-21T22:37:29.882Z,33.47
2023-03-21T22:39:57.284Z,33.77
2023-03-21T22:42:25.324Z,32.53
2023-03-21T22:44:54.084Z,37.63
2023-03-21T22:47:21.594Z,37.20
2023-03-21T22:49:49.061Z,36.90
2023-03-21T22:52:16.519Z,36.10
2023-03-21T22:54:44.096Z,33.27
2023-03-21T22:57:13.587Z,35.07
2023-03-21T22:59:41.171Z,32.80
2023-03-21T23:02:10.382Z,31.53
2023-03-21T23:04:38.202Z,31.40
2023-03-21T23:07:05.859Z,28.33
2023-03-21T23:09:33.560Z,27.43
2023-03-21T23:12:01.164Z,29.10
2023-03-21T23:14:28.849Z,26.47
2023-03-21T23:17:00.144Z,25.17
2023-03-21T23:19:29.614Z,30.37
2023-03-21T23:21:57.780Z,26.07
2023-03-21T23:24:25.731Z,27.53
2023-03-21T23:26:53.418Z,27.20
2023-03-21T23:29:20.955Z,27.03
2023-03-21T23:31:48.430Z,26.47
2023-03-21T23:34:16.286Z,25.87
2023-03-21T23:36:45.209Z,26.37
2023-03-21T23:39:12.635Z,27.97
2023-03-21T23:41:42.649Z,27.03
2023-03-21T23:44:10.113Z,27.10
2023-03-21T23:46:37.683Z,25.90
2023-03-21T23:49:05.255Z,25.53
2023-03-21T23:51:32.727Z,24.57
2023-03-21T23:54:01.613Z,26.20
2023-03-21T23:56:29.342Z,23.30
2023-03-21T23:58:58.185Z,23.67
